Terminal Aerodrome Forecast
Issued by NWS

Current Version | Previous Version | Text Only | Print | Product List | Glossary On
Versions: 1 2 3 4 5 6 7 8 9 10 11 12 13 14 15 16 17 18 19 20 21 22 23 24 25 26 27 28 29 30 31 32 33 34 35 36 37 38 39 40 41 42
000
FTUS43 KMKX 282327
TAFUES
TAF
KUES 282327Z 2900/2924 15007KT P6SM SKC
      TEMPO 2900/2901 21007KT
     FM290700 19010KT P6SM SCT250
     FM291000 19012G20KT P6SM BKN200 WS020/20045KT
     FM291300 19015G25KT P6SM BKN120 WS020/20050KT
     FM291500 19017G28KT 2SM -FZRAPL BKN025 WS020/20050KT
      TEMPO 2915/2916 1SM -SNPL BKN015
     FM291600 19020G32KT 1SM -RAPL OVC015
      TEMPO 2916/2917 3/4SM -FZRAPL OVC008
     FM291900 22020G33KT P6SM OVC015
     FM292100 23020G31KT P6SM VCSH OVC015=

USA.gov is the U.S. government's official web portal to all federal, state and local government web resources and services.